sensor_id;sensor_type;location;lat;lon;timestamp;P1;durP1;ratioP1;P2;durP2;ratioP2
16906;SDS011;8570;52.380;4.654;2023-05-07T00:01:06;20.55;;;18.45;;
16906;SDS011;8570;52.380;4.654;2023-05-07T00:06:11;21.83;;;18.20;;
16906;SDS011;8570;52.380;4.654;2023-05-07T00:11:26;22.58;;;19.17;;
16906;SDS011;8570;52.380;4.654;2023-05-07T00:16:45;20.98;;;18.95;;
16906;SDS011;8570;52.380;4.654;2023-05-07T00:22:04;21.80;;;19.13;;
16906;SDS011;8570;52.380;4.654;2023-05-07T00:27:07;23.25;;;20.10;;
16906;SDS011;8570;52.380;4.654;2023-05-07T00:32:09;24.33;;;20.00;;
16906;SDS011;8570;52.380;4.654;2023-05-07T00:37:11;23.27;;;20.02;;
16906;SDS011;8570;52.380;4.654;2023-05-07T00:42:17;23.90;;;21.27;;
16906;SDS011;8570;52.380;4.654;2023-05-07T00:47:20;25.65;;;22.80;;
16906;SDS011;8570;52.380;4.654;2023-05-07T00:52:22;29.35;;;24.85;;
16906;SDS011;8570;52.380;4.654;2023-05-07T00:57:28;32.88;;;26.27;;
16906;SDS011;8570;52.380;4.654;2023-05-07T01:02:30;33.33;;;28.95;;
16906;SDS011;8570;52.380;4.654;2023-05-07T01:07:32;34.28;;;29.30;;
16906;SDS011;8570;52.380;4.654;2023-05-07T01:12:36;33.03;;;28.60;;
16906;SDS011;8570;52.380;4.654;2023-05-07T01:17:39;34.15;;;30.55;;
16906;SDS011;8570;52.380;4.654;2023-05-07T01:22:43;37.00;;;30.02;;
16906;SDS011;8570;52.380;4.654;2023-05-07T01:27:46;35.63;;;30.33;;
16906;SDS011;8570;52.380;4.654;2023-05-07T01:32:50;35.53;;;31.17;;
16906;SDS011;8570;52.380;4.654;2023-05-07T01:37:55;33.92;;;29.30;;
16906;SDS011;8570;52.380;4.654;2023-05-07T01:42:58;35.75;;;31.38;;
16906;SDS011;8570;52.380;4.654;2023-05-07T01:48:02;39.25;;;32.22;;
16906;SDS011;8570;52.380;4.654;2023-05-07T01:53:06;39.78;;;31.77;;
16906;SDS011;8570;52.380;4.654;2023-05-07T01:58:07;43.35;;;35.33;;
16906;SDS011;8570;52.380;4.654;2023-05-07T02:03:09;40.20;;;33.88;;
16906;SDS011;8570;52.380;4.654;2023-05-07T02:08:13;39.03;;;33.75;;
16906;SDS011;8570;52.380;4.654;2023-05-07T02:13:15;38.80;;;33.38;;
16906;SDS011;8570;52.380;4.654;2023-05-07T02:18:16;43.03;;;34.15;;
16906;SDS011;8570;52.380;4.654;2023-05-07T02:23:20;38.83;;;32.75;;
16906;SDS011;8570;52.380;4.654;2023-05-07T02:28:22;34.90;;;30.75;;
16906;SDS011;8570;52.380;4.654;2023-05-07T02:33:24;34.05;;;30.42;;
16906;SDS011;8570;52.380;4.654;2023-05-07T02:38:28;34.47;;;29.85;;
16906;SDS011;8570;52.380;4.654;2023-05-07T02:43:30;34.78;;;29.38;;
16906;SDS011;8570;52.380;4.654;2023-05-07T02:48:32;30.60;;;27.30;;
16906;SDS011;8570;52.380;4.654;2023-05-07T02:53:36;36.67;;;29.35;;
16906;SDS011;8570;52.380;4.654;2023-05-07T02:58:38;31.08;;;27.17;;
16906;SDS011;8570;52.380;4.654;2023-05-07T03:03:42;30.73;;;26.83;;
16906;SDS011;8570;52.380;4.654;2023-05-07T03:08:45;27.65;;;24.70;;
16906;SDS011;8570;52.380;4.654;2023-05-07T03:13:48;24.67;;;20.90;;
16906;SDS011;8570;52.380;4.654;2023-05-07T03:18:50;25.55;;;20.73;;
16906;SDS011;8570;52.380;4.654;2023-05-07T03:23:53;21.25;;;17.77;;
16906;SDS011;8570;52.380;4.654;2023-05-07T03:28:55;19.38;;;17.38;;
16906;SDS011;8570;52.380;4.654;2023-05-07T03:33:58;20.05;;;18.05;;
16906;SDS011;8570;52.380;4.654;2023-05-07T03:39:01;20.67;;;17.17;;
16906;SDS011;8570;52.380;4.654;2023-05-07T03:44:03;18.85;;;16.00;;
16906;SDS011;8570;52.380;4.654;2023-05-07T03:49:06;17.95;;;15.90;;
16906;SDS011;8570;52.380;4.654;2023-05-07T03:54:09;16.92;;;14.85;;
16906;SDS011;8570;52.380;4.654;2023-05-07T03:59:11;18.40;;;14.38;;
16906;SDS011;8570;52.380;4.654;2023-05-07T04:04:14;17.67;;;14.48;;
16906;SDS011;8570;52.380;4.654;2023-05-07T04:09:17;14.35;;;12.85;;
16906;SDS011;8570;52.380;4.654;2023-05-07T04:14:20;15.43;;;13.02;;
16906;SDS011;8570;52.380;4.654;2023-05-07T04:19:22;13.75;;;12.43;;
16906;SDS011;8570;52.380;4.654;2023-05-07T04:24:25;14.82;;;12.88;;
16906;SDS011;8570;52.380;4.654;2023-05-07T04:29:27;12.82;;;11.50;;
16906;SDS011;8570;52.380;4.654;2023-05-07T04:34:30;13.18;;;11.82;;
16906;SDS011;8570;52.380;4.654;2023-05-07T04:39:33;12.30;;;11.00;;
16906;SDS011;8570;52.380;4.654;2023-05-07T04:44:36;12.27;;;10.70;;
16906;SDS011;8570;52.380;4.654;2023-05-07T04:49:38;11.52;;;10.25;;
16906;SDS011;8570;52.380;4.654;2023-05-07T04:54:42;12.98;;;10.40;;
16906;SDS011;8570;52.380;4.654;2023-05-07T04:59:44;11.93;;;10.00;;
16906;SDS011;8570;52.380;4.654;2023-05-07T05:04:46;10.88;;;9.77;;
16906;SDS011;8570;52.380;4.654;2023-05-07T05:09:50;12.20;;;9.90;;
16906;SDS011;8570;52.380;4.654;2023-05-07T05:14:52;12.40;;;9.60;;
16906;SDS011;8570;52.380;4.654;2023-05-07T05:19:54;10.30;;;9.30;;
16906;SDS011;8570;52.380;4.654;2023-05-07T05:24:58;10.80;;;9.32;;
16906;SDS011;8570;52.380;4.654;2023-05-07T05:30:01;10.18;;;9.07;;
16906;SDS011;8570;52.380;4.654;2023-05-07T05:35:03;12.15;;;9.18;;
16906;SDS011;8570;52.380;4.654;2023-05-07T05:40:07;11.75;;;9.40;;
16906;SDS011;8570;52.380;4.654;2023-05-07T05:45:10;11.93;;;9.95;;
16906;SDS011;8570;52.380;4.654;2023-05-07T05:50:15;12.90;;;9.70;;
16906;SDS011;8570;52.380;4.654;2023-05-07T05:55:19;11.65;;;9.20;;
16906;SDS011;8570;52.380;4.654;2023-05-07T06:00:22;11.13;;;9.02;;
16906;SDS011;8570;52.380;4.654;2023-05-07T06:05:24;12.93;;;9.23;;
16906;SDS011;8570;52.380;4.654;2023-05-07T06:10:27;14.27;;;10.20;;
16906;SDS011;8570;52.380;4.654;2023-05-07T06:15:30;16.45;;;10.52;;
16906;SDS011;8570;52.380;4.654;2023-05-07T06:20:32;17.67;;;11.13;;
16906;SDS011;8570;52.380;4.654;2023-05-07T06:25:35;14.02;;;12.13;;
16906;SDS011;8570;52.380;4.654;2023-05-07T06:30:40;15.30;;;13.73;;
16906;SDS011;8570;52.380;4.654;2023-05-07T06:35:42;18.40;;;16.23;;
16906;SDS011;8570;52.380;4.654;2023-05-07T06:40:47;17.85;;;15.18;;
16906;SDS011;8570;52.380;4.654;2023-05-07T06:45:50;17.98;;;16.10;;
16906;SDS011;8570;52.380;4.654;2023-05-07T06:50:52;18.55;;;15.18;;
16906;SDS011;8570;52.380;4.654;2023-05-07T06:55:57;17.85;;;15.60;;
16906;SDS011;8570;52.380;4.654;2023-05-07T07:00:59;17.13;;;15.13;;
16906;SDS011;8570;52.380;4.654;2023-05-07T07:06:01;17.95;;;15.98;;
16906;SDS011;8570;52.380;4.654;2023-05-07T07:11:04;17.30;;;15.50;;
16906;SDS011;8570;52.380;4.654;2023-05-07T07:16:06;19.65;;;15.95;;
16906;SDS011;8570;52.380;4.654;2023-05-07T07:21:08;18.05;;;15.38;;
16906;SDS011;8570;52.380;4.654;2023-05-07T07:26:12;17.52;;;15.65;;
16906;SDS011;8570;52.380;4.654;2023-05-07T07:31:14;17.50;;;15.68;;
16906;SDS011;8570;52.380;4.654;2023-05-07T07:36:16;18.85;;;15.35;;
16906;SDS011;8570;52.380;4.654;2023-05-07T07:41:19;16.83;;;15.02;;
16906;SDS011;8570;52.380;4.654;2023-05-07T07:46:21;14.98;;;13.43;;
16906;SDS011;8570;52.380;4.654;2023-05-07T07:51:23;16.50;;;14.05;;
16906;SDS011;8570;52.380;4.654;2023-05-07T07:56:28;14.93;;;13.32;;
16906;SDS011;8570;52.380;4.654;2023-05-07T08:01:30;13.50;;;12.18;;
16906;SDS011;8570;52.380;4.654;2023-05-07T08:06:32;14.88;;;12.48;;
16906;SDS011;8570;52.380;4.654;2023-05-07T08:11:36;15.77;;;11.85;;
16906;SDS011;8570;52.380;4.654;2023-05-07T08:16:38;13.18;;;11.75;;
16906;SDS011;8570;52.380;4.654;2023-05-07T08:21:40;13.52;;;12.05;;
16906;SDS011;8570;52.380;4.654;2023-05-07T08:26:43;15.10;;;12.75;;
16906;SDS011;8570;52.380;4.654;2023-05-07T08:31:45;13.10;;;11.70;;
16906;SDS011;8570;52.380;4.654;2023-05-07T08:36:47;13.07;;;11.60;;
16906;SDS011;8570;52.380;4.654;2023-05-07T08:41:50;14.40;;;11.63;;
16906;SDS011;8570;52.380;4.654;2023-05-07T08:46:56;12.02;;;10.57;;
16906;SDS011;8570;52.380;4.654;2023-05-07T08:52:01;13.10;;;10.52;;
16906;SDS011;8570;52.380;4.654;2023-05-07T08:57:05;10.80;;;8.57;;
16906;SDS011;8570;52.380;4.654;2023-05-07T09:02:07;11.90;;;8.20;;
16906;SDS011;8570;52.380;4.654;2023-05-07T09:07:11;12.30;;;8.32;;
16906;SDS011;8570;52.380;4.654;2023-05-07T09:12:14;10.43;;;9.32;;
16906;SDS011;8570;52.380;4.654;2023-05-07T09:17:16;11.50;;;9.02;;
16906;SDS011;8570;52.380;4.654;2023-05-07T09:22:19;11.05;;;9.57;;
16906;SDS011;8570;52.380;4.654;2023-05-07T09:27:22;12.45;;;8.32;;
16906;SDS011;8570;52.380;4.654;2023-05-07T09:32:25;9.02;;;7.43;;
16906;SDS011;8570;52.380;4.654;2023-05-07T09:37:27;38.15;;;10.25;;
16906;SDS011;8570;52.380;4.654;2023-05-07T09:42:33;12.02;;;6.95;;
16906;SDS011;8570;52.380;4.654;2023-05-07T09:47:35;9.52;;;7.07;;
16906;SDS011;8570;52.380;4.654;2023-05-07T09:52:40;8.52;;;6.70;;
16906;SDS011;8570;52.380;4.654;2023-05-07T09:57:45;7.88;;;5.60;;
16906;SDS011;8570;52.380;4.654;2023-05-07T10:02:48;8.75;;;5.00;;
16906;SDS011;8570;52.380;4.654;2023-05-07T10:07:52;10.05;;;6.47;;
16906;SDS011;8570;52.380;4.654;2023-05-07T10:12:56;9.75;;;5.32;;
16906;SDS011;8570;52.380;4.654;2023-05-07T10:17:58;8.30;;;6.32;;
16906;SDS011;8570;52.380;4.654;2023-05-07T10:23:01;7.70;;;6.40;;
16906;SDS011;8570;52.380;4.654;2023-05-07T10:28:07;10.90;;;5.95;;
16906;SDS011;8570;52.380;4.654;2023-05-07T10:33:11;9.27;;;5.55;;
16906;SDS011;8570;52.380;4.654;2023-05-07T10:38:16;7.32;;;5.57;;
16906;SDS011;8570;52.380;4.654;2023-05-07T10:43:20;12.80;;;6.70;;
16906;SDS011;8570;52.380;4.654;2023-05-07T10:48:22;9.48;;;6.18;;
16906;SDS011;8570;52.380;4.654;2023-05-07T10:53:24;8.05;;;5.40;;
16906;SDS011;8570;52.380;4.654;2023-05-07T10:58:29;8.13;;;6.22;;
16906;SDS011;8570;52.380;4.654;2023-05-07T11:03:33;7.28;;;5.10;;
16906;SDS011;8570;52.380;4.654;2023-05-07T11:08:54;7.25;;;6.13;;
16906;SDS011;8570;52.380;4.654;2023-05-07T11:13:58;9.43;;;6.40;;
16906;SDS011;8570;52.380;4.654;2023-05-07T11:19:00;8.55;;;6.50;;
16906;SDS011;8570;52.380;4.654;2023-05-07T11:24:02;6.97;;;6.13;;
16906;SDS011;8570;52.380;4.654;2023-05-07T11:29:09;9.57;;;6.68;;
16906;SDS011;8570;52.380;4.654;2023-05-07T11:34:12;7.13;;;5.95;;
16906;SDS011;8570;52.380;4.654;2023-05-07T11:39:29;7.65;;;5.75;;
16906;SDS011;8570;52.380;4.654;2023-05-07T11:44:43;8.48;;;5.68;;
16906;SDS011;8570;52.380;4.654;2023-05-07T11:49:48;12.07;;;6.25;;
16906;SDS011;8570;52.380;4.654;2023-05-07T11:54:51;10.18;;;4.93;;
16906;SDS011;8570;52.380;4.654;2023-05-07T11:59:56;7.00;;;3.53;;
16906;SDS011;8570;52.380;4.654;2023-05-07T12:05:00;7.13;;;3.67;;
16906;SDS011;8570;52.380;4.654;2023-05-07T12:10:04;6.63;;;3.28;;
16906;SDS011;8570;52.380;4.654;2023-05-07T12:15:08;6.85;;;3.22;;
16906;SDS011;8570;52.380;4.654;2023-05-07T12:20:10;9.40;;;3.60;;
16906;SDS011;8570;52.380;4.654;2023-05-07T12:25:13;6.13;;;2.90;;
16906;SDS011;8570;52.380;4.654;2023-05-07T12:30:21;9.50;;;3.38;;
16906;SDS011;8570;52.380;4.654;2023-05-07T12:35:26;7.75;;;2.80;;
16906;SDS011;8570;52.380;4.654;2023-05-07T12:40:35;14.02;;;7.05;;
16906;SDS011;8570;52.380;4.654;2023-05-07T12:45:39;14.52;;;9.10;;
16906;SDS011;8570;52.380;4.654;2023-05-07T12:50:43;16.02;;;12.23;;
16906;SDS011;8570;52.380;4.654;2023-05-07T12:55:45;15.70;;;12.40;;
16906;SDS011;8570;52.380;4.654;2023-05-07T13:00:49;15.98;;;12.90;;
16906;SDS011;8570;52.380;4.654;2023-05-07T13:05:52;23.90;;;14.68;;
16906;SDS011;8570;52.380;4.654;2023-05-07T13:10:56;19.08;;;13.88;;
16906;SDS011;8570;52.380;4.654;2023-05-07T13:16:01;23.48;;;13.18;;
16906;SDS011;8570;52.380;4.654;2023-05-07T13:21:04;13.93;;;11.30;;
16906;SDS011;8570;52.380;4.654;2023-05-07T13:26:06;22.15;;;13.43;;
16906;SDS011;8570;52.380;4.654;2023-05-07T13:31:09;20.05;;;14.65;;
16906;SDS011;8570;52.380;4.654;2023-05-07T13:36:11;21.05;;;14.43;;
16906;SDS011;8570;52.380;4.654;2023-05-07T13:41:13;22.05;;;15.30;;
16906;SDS011;8570;52.380;4.654;2023-05-07T13:46:16;18.33;;;13.30;;
16906;SDS011;8570;52.380;4.654;2023-05-07T13:51:18;20.23;;;11.77;;
16906;SDS011;8570;52.380;4.654;2023-05-07T13:56:20;20.17;;;11.40;;
16906;SDS011;8570;52.380;4.654;2023-05-07T14:01:24;13.00;;;8.65;;
16906;SDS011;8570;52.380;4.654;2023-05-07T14:06:26;13.05;;;8.70;;
16906;SDS011;8570;52.380;4.654;2023-05-07T14:11:28;15.57;;;9.10;;
16906;SDS011;8570;52.380;4.654;2023-05-07T14:16:31;15.43;;;10.73;;
16906;SDS011;8570;52.380;4.654;2023-05-07T14:21:33;21.15;;;12.68;;
16906;SDS011;8570;52.380;4.654;2023-05-07T14:26:35;22.13;;;13.50;;
16906;SDS011;8570;52.380;4.654;2023-05-07T14:31:38;23.83;;;18.02;;
16906;SDS011;8570;52.380;4.654;2023-05-07T14:36:40;20.73;;;18.50;;
16906;SDS011;8570;52.380;4.654;2023-05-07T14:41:43;22.35;;;19.95;;
16906;SDS011;8570;52.380;4.654;2023-05-07T14:46:47;21.90;;;19.75;;
16906;SDS011;8570;52.380;4.654;2023-05-07T14:51:49;17.90;;;16.00;;
16906;SDS011;8570;52.380;4.654;2023-05-07T14:56:51;19.38;;;17.50;;
16906;SDS011;8570;52.380;4.654;2023-05-07T15:01:54;20.55;;;17.42;;
16906;SDS011;8570;52.380;4.654;2023-05-07T15:06:56;18.30;;;16.45;;
16906;SDS011;8570;52.380;4.654;2023-05-07T15:11:58;18.35;;;16.45;;
16906;SDS011;8570;52.380;4.654;2023-05-07T15:17:01;16.85;;;15.15;;
16906;SDS011;8570;52.380;4.654;2023-05-07T15:22:03;17.08;;;14.77;;
16906;SDS011;8570;52.380;4.654;2023-05-07T15:27:05;15.30;;;13.82;;
16906;SDS011;8570;52.380;4.654;2023-05-07T15:32:09;16.83;;;13.77;;
16906;SDS011;8570;52.380;4.654;2023-05-07T15:37:11;15.68;;;13.60;;
16906;SDS011;8570;52.380;4.654;2023-05-07T15:42:12;13.93;;;12.63;;
16906;SDS011;8570;52.380;4.654;2023-05-07T15:47:16;12.98;;;11.68;;
16906;SDS011;8570;52.380;4.654;2023-05-07T15:52:17;15.02;;;10.40;;
16906;SDS011;8570;52.380;4.654;2023-05-07T15:57:20;12.57;;;10.40;;
16906;SDS011;8570;52.380;4.654;2023-05-07T16:02:23;13.90;;;12.43;;
16906;SDS011;8570;52.380;4.654;2023-05-07T16:07:25;13.15;;;10.45;;
16906;SDS011;8570;52.380;4.654;2023-05-07T16:12:27;11.50;;;10.30;;
16906;SDS011;8570;52.380;4.654;2023-05-07T16:17:31;11.95;;;10.20;;
16906;SDS011;8570;52.380;4.654;2023-05-07T16:22:32;13.00;;;10.80;;
16906;SDS011;8570;52.380;4.654;2023-05-07T16:27:35;13.70;;;10.10;;
16906;SDS011;8570;52.380;4.654;2023-05-07T16:32:38;12.90;;;10.60;;
16906;SDS011;8570;52.380;4.654;2023-05-07T16:37:41;15.65;;;10.60;;
16906;SDS011;8570;52.380;4.654;2023-05-07T16:42:42;12.48;;;11.15;;
16906;SDS011;8570;52.380;4.654;2023-05-07T16:47:46;16.90;;;12.48;;
16906;SDS011;8570;52.380;4.654;2023-05-07T16:52:48;16.10;;;13.10;;
16906;SDS011;8570;52.380;4.654;2023-05-07T16:57:50;21.02;;;14.70;;
16906;SDS011;8570;52.380;4.654;2023-05-07T17:02:53;17.50;;;13.98;;
16906;SDS011;8570;52.380;4.654;2023-05-07T17:07:55;18.58;;;14.02;;
16906;SDS011;8570;52.380;4.654;2023-05-07T17:12:57;19.45;;;14.88;;
16906;SDS011;8570;52.380;4.654;2023-05-07T17:18:00;17.20;;;14.50;;
16906;SDS011;8570;52.380;4.654;2023-05-07T17:23:02;21.15;;;16.77;;
16906;SDS011;8570;52.380;4.654;2023-05-07T17:28:04;25.88;;;22.98;;
16906;SDS011;8570;52.380;4.654;2023-05-07T17:33:07;32.63;;;27.92;;
16906;SDS011;8570;52.380;4.654;2023-05-07T17:38:09;30.23;;;27.02;;
16906;SDS011;8570;52.380;4.654;2023-05-07T17:43:11;30.15;;;27.00;;
16906;SDS011;8570;52.380;4.654;2023-05-07T17:48:14;34.95;;;29.38;;
16906;SDS011;8570;52.380;4.654;2023-05-07T17:53:16;32.58;;;29.10;;
16906;SDS011;8570;52.380;4.654;2023-05-07T17:58:18;32.85;;;29.35;;
16906;SDS011;8570;52.380;4.654;2023-05-07T18:03:22;34.22;;;29.23;;
16906;SDS011;8570;52.380;4.654;2023-05-07T18:08:24;34.38;;;30.38;;
16906;SDS011;8570;52.380;4.654;2023-05-07T18:13:26;36.13;;;30.95;;
16906;SDS011;8570;52.380;4.654;2023-05-07T18:18:29;35.30;;;31.05;;
16906;SDS011;8570;52.380;4.654;2023-05-07T18:23:34;35.17;;;31.35;;
16906;SDS011;8570;52.380;4.654;2023-05-07T18:28:36;37.85;;;33.90;;
16906;SDS011;8570;52.380;4.654;2023-05-07T18:33:40;37.42;;;30.85;;
16906;SDS011;8570;52.380;4.654;2023-05-07T18:38:42;36.40;;;32.28;;
16906;SDS011;8570;52.380;4.654;2023-05-07T18:43:43;35.78;;;31.50;;
16906;SDS011;8570;52.380;4.654;2023-05-07T18:48:48;36.90;;;33.00;;
16906;SDS011;8570;52.380;4.654;2023-05-07T18:53:50;35.13;;;31.42;;
16906;SDS011;8570;52.380;4.654;2023-05-07T18:58:52;36.10;;;32.25;;
16906;SDS011;8570;52.380;4.654;2023-05-07T19:03:55;36.08;;;31.25;;
16906;SDS011;8570;52.380;4.654;2023-05-07T19:08:57;36.53;;;32.65;;
16906;SDS011;8570;52.380;4.654;2023-05-07T19:14:01;37.70;;;33.03;;
16906;SDS011;8570;52.380;4.654;2023-05-07T19:19:05;38.80;;;34.03;;
16906;SDS011;8570;52.380;4.654;2023-05-07T19:24:07;37.65;;;32.58;;
16906;SDS011;8570;52.380;4.654;2023-05-07T19:29:09;37.30;;;33.28;;
16906;SDS011;8570;52.380;4.654;2023-05-07T19:34:13;37.78;;;33.80;;
16906;SDS011;8570;52.380;4.654;2023-05-07T19:39:15;37.38;;;33.00;;
16906;SDS011;8570;52.380;4.654;2023-05-07T19:44:17;38.65;;;34.58;;
16906;SDS011;8570;52.380;4.654;2023-05-07T19:49:21;40.88;;;34.53;;
16906;SDS011;8570;52.380;4.654;2023-05-07T19:54:23;39.45;;;34.58;;
16906;SDS011;8570;52.380;4.654;2023-05-07T19:59:25;41.67;;;35.30;;
16906;SDS011;8570;52.380;4.654;2023-05-07T20:04:29;42.72;;;35.42;;
16906;SDS011;8570;52.380;4.654;2023-05-07T20:09:36;43.50;;;35.60;;
16906;SDS011;8570;52.380;4.654;2023-05-07T20:14:38;39.83;;;33.72;;
16906;SDS011;8570;52.380;4.654;2023-05-07T20:19:43;45.17;;;35.08;;
16906;SDS011;8570;52.380;4.654;2023-05-07T20:24:45;41.58;;;34.83;;
16906;SDS011;8570;52.380;4.654;2023-05-07T20:29:48;43.45;;;35.13;;
16906;SDS011;8570;52.380;4.654;2023-05-07T20:34:51;40.33;;;33.38;;
16906;SDS011;8570;52.380;4.654;2023-05-07T20:39:53;41.70;;;34.83;;
16906;SDS011;8570;52.380;4.654;2023-05-07T20:44:55;43.00;;;34.58;;
16906;SDS011;8570;52.380;4.654;2023-05-07T20:49:58;40.00;;;35.67;;
16906;SDS011;8570;52.380;4.654;2023-05-07T20:55:00;40.17;;;35.80;;
16906;SDS011;8570;52.380;4.654;2023-05-07T21:00:02;46.95;;;37.90;;
16906;SDS011;8570;52.380;4.654;2023-05-07T21:05:07;39.78;;;34.97;;
16906;SDS011;8570;52.380;4.654;2023-05-07T21:10:09;43.13;;;36.95;;
16906;SDS011;8570;52.380;4.654;2023-05-07T21:15:11;44.63;;;38.33;;
16906;SDS011;8570;52.380;4.654;2023-05-07T21:20:14;42.33;;;37.72;;
16906;SDS011;8570;52.380;4.654;2023-05-07T21:25:16;41.47;;;35.28;;
16906;SDS011;8570;52.380;4.654;2023-05-07T21:30:18;41.30;;;36.47;;
16906;SDS011;8570;52.380;4.654;2023-05-07T21:35:22;41.33;;;36.97;;
16906;SDS011;8570;52.380;4.654;2023-05-07T21:40:23;38.97;;;34.67;;
16906;SDS011;8570;52.380;4.654;2023-05-07T21:45:25;44.28;;;36.55;;
16906;SDS011;8570;52.380;4.654;2023-05-07T21:50:29;39.85;;;35.40;;
16906;SDS011;8570;52.380;4.654;2023-05-07T21:55:31;43.25;;;34.17;;
16906;SDS011;8570;52.380;4.654;2023-05-07T22:00:33;39.55;;;34.70;;
16906;SDS011;8570;52.380;4.654;2023-05-07T22:05:36;39.95;;;34.78;;
16906;SDS011;8570;52.380;4.654;2023-05-07T22:10:38;40.28;;;35.80;;
16906;SDS011;8570;52.380;4.654;2023-05-07T22:15:40;38.78;;;34.65;;
16906;SDS011;8570;52.380;4.654;2023-05-07T22:20:43;42.20;;;35.88;;
16906;SDS011;8570;52.380;4.654;2023-05-07T22:25:45;40.55;;;36.25;;
16906;SDS011;8570;52.380;4.654;2023-05-07T22:30:47;39.63;;;35.38;;
16906;SDS011;8570;52.380;4.654;2023-05-07T22:35:51;41.72;;;35.50;;
16906;SDS011;8570;52.380;4.654;2023-05-07T22:40:53;39.53;;;35.22;;
16906;SDS011;8570;52.380;4.654;2023-05-07T22:45:58;40.78;;;35.33;;
16906;SDS011;8570;52.380;4.654;2023-05-07T22:51:02;37.30;;;33.50;;
16906;SDS011;8570;52.380;4.654;2023-05-07T22:56:04;39.45;;;35.10;;
16906;SDS011;8570;52.380;4.654;2023-05-07T23:01:10;40.67;;;35.63;;
16906;SDS011;8570;52.380;4.654;2023-05-07T23:06:14;39.47;;;34.83;;
16906;SDS011;8570;52.380;4.654;2023-05-07T23:11:16;44.72;;;35.70;;
16906;SDS011;8570;52.380;4.654;2023-05-07T23:16:18;43.05;;;36.97;;
16906;SDS011;8570;52.380;4.654;2023-05-07T23:21:21;48.60;;;39.47;;
16906;SDS011;8570;52.380;4.654;2023-05-07T23:26:25;43.78;;;38.35;;
16906;SDS011;8570;52.380;4.654;2023-05-07T23:31:27;41.00;;;36.58;;
16906;SDS011;8570;52.380;4.654;2023-05-07T23:36:30;43.15;;;36.28;;
16906;SDS011;8570;52.380;4.654;2023-05-07T23:41:32;40.28;;;36.00;;
16906;SDS011;8570;52.380;4.654;2023-05-07T23:46:34;44.72;;;36.42;;
16906;SDS011;8570;52.380;4.654;2023-05-07T23:51:38;44.80;;;38.85;;
16906;SDS011;8570;52.380;4.654;2023-05-07T23:56:40;44.85;;;38.97;;
